Time;durP1;ratioP1;P1;durP2;ratioP2;P2;SDS_P1;SDS_P2;PMS_P1;PMS_P2;Temp;Humidity;BMP_temperature;BMP_pressure;BME280_temperature;BME280_humidity;BME280_pressure;Samples;Min_cycle;Max_cycle;Signal;HPM_P1;HPM_P2
2024/01/01 00:00:47;;;;;;;;;;;;;;;17.03;63.98;98198.25;2090136;28;19967;-63
2024/01/01 00:01:49;;;;;;;;;;;;;;;17.03;63.90;98201.75;2091563;28;19933;-64
2024/01/01 00:02:49;;;;;;;;;;;;;;;17.03;63.87;98209.78;2089433;28;19935;-64
2024/01/01 00:03:51;;;;;;;;;;;;;;;17.02;63.86;98204.63;2094242;28;19971;-64
2024/01/01 00:04:51;;;;;;;;;;;;;;;17.02;63.97;98207.28;2093179;28;19925;-65
2024/01/01 00:05:52;;;;;;;;;;;;;;;17.02;64.00;98199.25;2095446;28;19959;-65
2024/01/01 00:06:54;;;;;;;;;;;;;;;16.98;64.18;98198.84;2089064;28;19950;-63
2024/01/01 00:07:54;;;;;;;;;;;;;;;16.99;63.89;98205.84;2092540;28;19936;-62
2024/01/01 00:08:55;;;;;;;;;;;;;;;17.02;63.82;98202.78;2092749;28;20285;-63
2024/01/01 00:09:56;;;;;;;;;;;;;;;16.98;64.00;98197.00;2090938;28;19946;-62
2024/01/01 00:10:57;;;;;;;;;;;;;;;16.98;64.12;98197.00;2087129;28;19932;-63
2024/01/01 00:11:59;;;;;;;;;;;;;;;17.02;63.95;98202.78;2089879;28;19978;-62
2024/01/01 00:13:01;;;;;;;;;;;;;;;17.00;64.01;98206.69;2092528;28;19939;-64
2024/01/01 00:14:02;;;;;;;;;;;;;;;16.96;64.10;98199.03;2092249;28;19959;-64
2024/01/01 00:15:03;;;;;;;;;;;;;;;16.96;64.19;98203.56;2090169;28;19933;-64
2024/01/01 00:16:05;;;;;;;;;;;;;;;16.96;64.16;98200.91;2090179;28;19971;-64
2024/01/01 00:17:06;;;;;;;;;;;;;;;16.95;64.08;98200.06;2091643;28;19931;-63
2024/01/01 00:18:07;;;;;;;;;;;;;;;16.96;64.01;98207.06;2090847;28;19995;-63
2024/01/01 00:19:08;;;;;;;;;;;;;;;16.95;64.04;98208.13;2090542;28;20393;-64
2024/01/01 00:20:10;;;;;;;;;;;;;;;16.95;64.08;98216.16;2092323;28;19982;-64
2024/01/01 00:21:13;;;;;;;;;;;;;;;16.97;64.03;98197.22;2089547;28;19991;-63
2024/01/01 00:22:14;;;;;;;;;;;;;;;16.96;63.94;98191.00;2091650;28;20353;-62
2024/01/01 00:23:15;;;;;;;;;;;;;;;16.97;63.91;98199.88;2091532;28;19935;-63
2024/01/01 00:24:17;;;;;;;;;;;;;;;16.97;63.86;98199.88;2090908;28;20537;-64
2024/01/01 00:25:18;;;;;;;;;;;;;;;16.97;63.88;98194.53;2089113;28;20019;-63
2024/01/01 00:26:18;;;;;;;;;;;;;;;16.95;64.11;98191.22;2091201;28;20111;-64
2024/01/01 00:27:20;;;;;;;;;;;;;;;16.95;64.02;98191.22;2091325;28;20113;-64
2024/01/01 00:28:22;;;;;;;;;;;;;;;16.95;64.06;98191.22;2089993;28;20609;-63
2024/01/01 00:29:24;;;;;;;;;;;;;;;16.95;63.91;98180.50;2089860;28;19951;-63
2024/01/01 00:30:25;;;;;;;;;;;;;;;16.93;64.08;98177.19;2093125;28;19928;-64
2024/01/01 00:31:26;;;;;;;;;;;;;;;16.90;63.97;98175.75;2094324;28;20356;-64
2024/01/01 00:32:27;;;;;;;;;;;;;;;16.93;63.95;98179.88;2091034;28;21071;-64
2024/01/01 00:33:29;;;;;;;;;;;;;;;16.94;64.03;98178.88;2088037;28;20062;-66
2024/01/01 00:34:29;;;;;;;;;;;;;;;16.92;63.89;98183.59;2090316;28;19932;-64
2024/01/01 00:35:31;;;;;;;;;;;;;;;16.92;64.07;98189.78;2091591;28;20031;-64
2024/01/01 00:36:31;;;;;;;;;;;;;;;16.91;64.02;98188.13;2092592;28;19924;-64
2024/01/01 00:37:33;;;;;;;;;;;;;;;16.92;64.11;98188.94;2090739;28;20331;-65
2024/01/01 00:38:34;;;;;;;;;;;;;;;16.89;64.06;98192.03;2090079;28;19925;-64
2024/01/01 00:39:35;;;;;;;;;;;;;;;16.88;64.05;98190.38;2091730;28;20479;-64
2024/01/01 00:40:36;;;;;;;;;;;;;;;16.90;64.02;98182.97;2089181;28;20400;-65
2024/01/01 00:41:38;;;;;;;;;;;;;;;16.88;64.03;98190.38;2090506;28;20391;-65
2024/01/01 00:42:40;;;;;;;;;;;;;;;16.88;64.13;98195.72;2090976;28;20303;-67
2024/01/01 00:43:44;;;;;;;;;;;;;;;16.87;64.08;98202.13;2091169;28;19933;-64
2024/01/01 00:44:44;;;;;;;;;;;;;;;16.86;64.08;98197.81;2089271;28;19936;-63
2024/01/01 00:45:46;;;;;;;;;;;;;;;16.88;64.20;98193.03;2091665;28;19932;-64
2024/01/01 00:46:47;;;;;;;;;;;;;;;16.88;64.28;98211.81;2090346;28;19925;-63
2024/01/01 00:47:48;;;;;;;;;;;;;;;16.87;64.12;98216.34;2090674;28;19963;-64
2024/01/01 00:48:50;;;;;;;;;;;;;;;16.89;64.08;98219.66;2090445;28;19932;-64
2024/01/01 00:49:52;;;;;;;;;;;;;;;16.89;63.86;98218.81;2093871;28;19936;-65
2024/01/01 00:50:52;;;;;;;;;;;;;;;16.88;64.06;98215.34;2091060;28;19940;-64
2024/01/01 00:51:54;;;;;;;;;;;;;;;16.87;64.06;98220.88;2089105;28;20015;-65
2024/01/01 00:52:54;;;;;;;;;;;;;;;16.86;64.05;98221.91;2089394;28;20388;-64
2024/01/01 00:53:56;;;;;;;;;;;;;;;16.85;64.08;98222.91;2092152;28;19960;-63
2024/01/01 00:54:57;;;;;;;;;;;;;;;16.87;63.95;98231.59;2089398;28;19924;-66
2024/01/01 00:55:58;;;;;;;;;;;;;;;16.87;64.05;98231.59;2089989;28;19971;-64
2024/01/01 00:56:59;;;;;;;;;;;;;;;16.87;64.02;98236.94;2091710;28;19925;-63
2024/01/01 00:58:00;;;;;;;;;;;;;;;16.86;64.04;98232.63;2090393;28;20062;-66
2024/01/01 00:59:02;;;;;;;;;;;;;;;16.86;64.00;98236.13;2090363;28;19932;-64
2024/01/01 01:00:05;;;;;;;;;;;;;;;16.86;64.03;98246.84;2092199;28;19971;-63
2024/01/01 01:01:05;;;;;;;;;;;;;;;16.88;64.03;98242.13;2091965;28;20295;-64
2024/01/01 01:02:07;;;;;;;;;;;;;;;16.86;63.99;98252.19;2090780;28;19979;-65
2024/01/01 01:03:08;;;;;;;;;;;;;;;16.86;63.98;98252.19;2090891;28;20065;-65
2024/01/01 01:04:09;;;;;;;;;;;;;;;16.84;64.17;98258.78;2088837;28;19967;-64
2024/01/01 01:05:10;;;;;;;;;;;;;;;16.85;63.99;98253.19;2091849;28;19935;-63
2024/01/01 01:06:12;;;;;;;;;;;;;;;16.86;64.07;98262.09;2093099;28;19925;-64
2024/01/01 01:07:12;;;;;;;;;;;;;;;16.85;63.90;98260.41;2089615;28;19955;-64
2024/01/01 01:08:14;;;;;;;;;;;;;;;16.84;64.17;98264.13;2090972;28;19978;-64
2024/01/01 01:09:15;;;;;;;;;;;;;;;16.81;64.18;98265.38;2091257;28;20300;-64
2024/01/01 01:10:16;;;;;;;;;;;;;;;16.84;64.02;98269.50;2090696;28;19975;-64
2024/01/01 01:11:17;;;;;;;;;;;;;;;16.84;64.00;98258.78;2088090;28;19944;-65
2024/01/01 01:12:19;;;;;;;;;;;;;;;16.83;64.18;98263.31;2090129;28;19960;-63
2024/01/01 01:13:19;;;;;;;;;;;;;;;16.81;63.97;98267.22;2088519;28;20280;-63
2024/01/01 01:14:22;;;;;;;;;;;;;;;16.82;64.10;98271.53;2090591;28;19978;-65
2024/01/01 01:15:26;;;;;;;;;;;;;;;16.83;63.92;98266.00;2088989;28;20415;-64
2024/01/01 01:16:28;;;;;;;;;;;;;;;16.81;64.12;98273.41;2093872;28;20537;-64
2024/01/01 01:17:28;;;;;;;;;;;;;;;16.80;64.08;98274.44;2088683;28;19931;-65
2024/01/01 01:18:30;;;;;;;;;;;;;;;16.81;64.03;98262.69;2091613;28;19960;-65
2024/01/01 01:19:30;;;;;;;;;;;;;;;16.82;63.94;98271.53;2090882;28;20410;-65
2024/01/01 01:20:32;;;;;;;;;;;;;;;16.80;64.05;98258.38;2091515;28;20023;-64
2024/01/01 01:21:33;;;;;;;;;;;;;;;16.83;64.00;98270.53;2090428;28;19932;-64
2024/01/01 01:22:34;;;;;;;;;;;;;;;16.80;64.14;98269.09;2090474;28;19967;-64
2024/01/01 01:23:35;;;;;;;;;;;;;;;16.79;63.93;98278.13;2091776;28;19936;-64
2024/01/01 01:24:36;;;;;;;;;;;;;;;16.80;64.04;98273.59;2089938;28;20337;-64
2024/01/01 01:25:37;;;;;;;;;;;;;;;16.79;64.01;98271.94;2089565;28;19928;-64
2024/01/01 01:26:37;;;;;;;;;;;;;;;16.78;63.97;98270.31;2091189;28;20422;-65
2024/01/01 01:27:41;;;;;;;;;;;;;;;16.80;63.90;98271.75;2089478;28;20007;-64
2024/01/01 01:28:41;;;;;;;;;;;;;;;16.80;63.91;98276.25;2087398;28;19985;-65
2024/01/01 01:29:45;;;;;;;;;;;;;;;16.77;64.05;98280.19;2090353;28;20036;-65
2024/01/01 01:30:46;;;;;;;;;;;;;;;16.79;64.15;98282.66;2088775;28;19989;-64
2024/01/01 01:31:47;;;;;;;;;;;;;;;16.78;63.91;98281.00;2091394;28;20419;-63
2024/01/01 01:32:48;;;;;;;;;;;;;;;16.77;64.03;98279.34;2088167;28;19955;-65
2024/01/01 01:33:50;;;;;;;;;;;;;;;16.76;64.24;98281.16;2091377;28;20643;-63
2024/01/01 01:34:51;;;;;;;;;;;;;;;16.74;64.13;98283.22;2091051;28;20009;-64
2024/01/01 01:35:53;;;;;;;;;;;;;;;16.74;64.09;98291.25;2088746;28;19924;-64
2024/01/01 01:36:53;;;;;;;;;;;;;;;16.74;64.03;98297.47;2093199;28;19932;-63
2024/01/01 01:37:55;;;;;;;;;;;;;;;16.71;64.14;98297.81;2088512;28;19964;-64
2024/01/01 01:38:55;;;;;;;;;;;;;;;16.70;64.16;98309.56;2091871;28;19924;-65
2024/01/01 01:39:56;;;;;;;;;;;;;;;16.72;64.17;98298.69;2089859;28;19967;-65
2024/01/01 01:40:58;;;;;;;;;;;;;;;16.73;64.17;98300.31;2089596;28;19925;-63
2024/01/01 01:41:59;;;;;;;;;;;;;;;16.73;64.18;98301.13;2089003;28;19964;-63
2024/01/01 01:43:00;;;;;;;;;;;;;;;16.73;64.18;98301.13;2089256;28;19925;-65
2024/01/01 01:44:01;;;;;;;;;;;;;;;16.74;64.14;98308.16;2087001;28;19951;-64
2024/01/01 01:45:04;;;;;;;;;;;;;;;16.73;64.02;98297.63;2079240;28;19929;-63
2024/01/01 01:46:06;;;;;;;;;;;;;;;16.71;64.20;98300.50;2087533;28;19974;-65
2024/01/01 01:47:06;;;;;;;;;;;;;;;16.86;64.21;98303.09;2082691;28;20662;-72
2024/01/01 01:48:08;;;;;;;;;;;;;;;16.92;64.07;98302.28;2087135;28;19933;-63
2024/01/01 01:49:09;;;;;;;;;;;;;;;16.92;64.44;98309.50;2083303;28;20371;-62
2024/01/01 01:50:11;;;;;;;;;;;;;;;16.92;64.51;98298.78;2087880;28;20105;-62
2024/01/01 01:51:12;;;;;;;;;;;;;;;16.91;64.45;98311.34;2087386;28;19932;-62
2024/01/01 01:52:13;;;;;;;;;;;;;;;16.92;64.29;98309.50;2088447;28;20446;-62
2024/01/01 01:53:14;;;;;;;;;;;;;;;16.92;64.84;98306.81;2087831;28;20400;-61
2024/01/01 01:54:16;;;;;;;;;;;;;;;16.88;64.86;98308.22;2085017;28;19928;-61
2024/01/01 01:55:22;;;;;;;;;;;;;;;16.93;64.81;98305.78;2084590;28;19932;-63
2024/01/01 01:56:24;;;;;;;;;;;;;;;16.95;64.96;98303.75;2086070;28;19979;-63
2024/01/01 01:57:25;;;;;;;;;;;;;;;16.95;65.01;98312.59;2082179;28;19939;-65
2024/01/01 01:58:27;;;;;;;;;;;;;;;16.96;65.27;98308.06;2083761;28;19932;-61
2024/01/01 01:59:28;;;;;;;;;;;;;;;16.97;64.95;98307.88;2088466;28;19925;-63
2024/01/01 02:00:32;;;;;;;;;;;;;;;17.00;65.58;98308.50;2085608;28;19928;-62
2024/01/01 02:01:32;;;;;;;;;;;;;;;17.01;65.75;98307.47;2083974;28;20421;-63
2024/01/01 02:02:35;;;;;;;;;;;;;;;17.03;65.74;98310.78;2087997;28;20011;-63
2024/01/01 02:03:35;;;;;;;;;;;;;;;17.05;66.39;98304.19;2089059;28;19940;-63
2024/01/01 02:04:37;;;;;;;;;;;;;;;17.05;65.93;98303.34;2088372;28;20699;-64
2024/01/01 02:05:38;;;;;;;;;;;;;;;17.05;65.98;98309.56;2089321;28;19928;-63
2024/01/01 02:06:39;;;;;;;;;;;;;;;17.04;66.06;98307.88;2090214;28;19933;-62
2024/01/01 02:07:41;;;;;;;;;;;;;;;17.04;66.15;98310.56;2089241;28;19933;-62
2024/01/01 02:08:42;;;;;;;;;;;;;;;17.04;66.25;98313.25;2090293;28;20380;-62
2024/01/01 02:09:43;;;;;;;;;;;;;;;17.05;66.27;98314.91;2089094;28;20652;-63
2024/01/01 02:10:44;;;;;;;;;;;;;;;17.04;66.29;98315.91;2089788;28;19936;-62
2024/01/01 02:11:45;;;;;;;;;;;;;;;17.04;66.23;98312.41;2091783;28;19928;-62
2024/01/01 02:12:46;;;;;;;;;;;;;;;17.04;66.36;98318.59;2090486;28;20311;-63
2024/01/01 02:13:47;;;;;;;;;;;;;;;17.05;66.50;98314.91;2089437;28;19972;-62
2024/01/01 02:14:49;;;;;;;;;;;;;;;17.04;66.53;98315.91;2088892;28;19952;-63
2024/01/01 02:15:51;;;;;;;;;;;;;;;17.05;66.44;98308.69;2087954;28;20007;-63
2024/01/01 02:16:52;;;;;;;;;;;;;;;17.05;66.71;98311.38;2082941;28;19957;-63
2024/01/01 02:17:53;;;;;;;;;;;;;;;17.06;66.85;98311.19;2086693;28;20391;-63
2024/01/01 02:18:54;;;;;;;;;;;;;;;17.06;67.01;98310.38;2090974;28;20031;-63
2024/01/01 02:19:55;;;;;;;;;;;;;;;17.06;67.15;98310.38;2089997;28;19928;-63
2024/01/01 02:20:56;;;;;;;;;;;;;;;17.04;67.13;98318.59;2086929;28;19956;-62
2024/01/01 02:21:57;;;;;;;;;;;;;;;17.06;67.26;98316.56;2088194;28;19931;-63
2024/01/01 02:23:00;;;;;;;;;;;;;;;17.07;67.25;98310.16;2086984;28;20019;-64
2024/01/01 02:24:01;;;;;;;;;;;;;;;17.07;67.36;98312.00;2087849;28;19933;-63
2024/01/01 02:25:02;;;;;;;;;;;;;;;17.08;67.29;98309.16;2085899;28;19968;-63
2024/01/01 02:26:03;;;;;;;;;;;;;;;17.09;67.33;98308.09;2090036;28;20425;-62
2024/01/01 02:27:05;;;;;;;;;;;;;;;17.10;67.46;98301.72;2089089;28;19972;-62
2024/01/01 02:28:07;;;;;;;;;;;;;;;17.09;67.34;98305.44;2087337;28;21420;-63
2024/01/01 02:29:08;;;;;;;;;;;;;;;17.10;67.44;98301.72;2086645;28;19960;-63
2024/01/01 02:30:10;;;;;;;;;;;;;;;17.09;67.52;98302.75;2086951;28;19935;-62
2024/01/01 02:31:11;;;;;;;;;;;;;;;17.09;67.64;98300.06;2086386;28;19935;-61
2024/01/01 02:32:12;;;;;;;;;;;;;;;17.09;67.69;98296.56;2090623;28;20661;-62
2024/01/01 02:33:14;;;;;;;;;;;;;;;17.08;67.59;98298.44;2089745;28;19932;-62
2024/01/01 02:34:17;;;;;;;;;;;;;;;17.09;67.60;98294.72;2089382;28;19925;-63
2024/01/01 02:35:18;;;;;;;;;;;;;;;17.10;67.91;98301.72;2087536;28;20016;-63
2024/01/01 02:36:19;;;;;;;;;;;;;;;17.11;67.88;98299.88;2085469;28;20086;-62
2024/01/01 02:37:20;;;;;;;;;;;;;;;17.09;67.65;98289.34;2089673;28;20272;-62
2024/01/01 02:38:22;;;;;;;;;;;;;;;17.12;68.00;98288.94;2089126;28;19983;-63
2024/01/01 02:39:23;;;;;;;;;;;;;;;17.12;67.75;98298.84;2088472;28;19966;-63
2024/01/01 02:40:24;;;;;;;;;;;;;;;17.11;67.75;98295.34;2089463;28;19925;-62
2024/01/01 02:41:25;;;;;;;;;;;;;;;17.12;68.05;98283.59;2087095;28;19960;-63
2024/01/01 02:42:27;;;;;;;;;;;;;;;17.13;67.87;98289.75;2088504;28;20397;-62
2024/01/01 02:43:28;;;;;;;;;;;;;;;17.12;68.06;98285.44;2091163;28;19932;-63
2024/01/01 02:44:29;;;;;;;;;;;;;;;17.12;67.82;98286.25;2086721;28;19929;-62
2024/01/01 02:45:31;;;;;;;;;;;;;;;17.10;68.07;98285.63;2088657;28;19974;-64
2024/01/01 02:46:32;;;;;;;;;;;;;;;17.10;68.09;98282.94;2090137;28;20502;-63
2024/01/01 02:47:35;;;;;;;;;;;;;;;17.11;68.00;98281.13;2088573;28;19928;-64
2024/01/01 02:48:35;;;;;;;;;;;;;;;17.11;68.35;98281.13;2090772;28;19929;-64
2024/01/01 02:49:37;;;;;;;;;;;;;;;17.13;67.97;98282.56;2090311;28;19925;-64
2024/01/01 02:50:37;;;;;;;;;;;;;;;17.15;68.13;98283.19;2092664;28;19929;-63
2024/01/01 02:51:42;;;;;;;;;;;;;;;17.13;68.09;98279.91;2087960;28;19925;-64
2024/01/01 02:52:42;;;;;;;;;;;;;;;17.15;68.10;98283.19;2087492;28;20532;-64
2024/01/01 02:53:45;;;;;;;;;;;;;;;17.15;68.07;98275.13;2088016;28;20521;-64
2024/01/01 02:54:46;;;;;;;;;;;;;;;17.13;68.15;98285.25;2085219;28;19929;-64
2024/01/01 02:55:47;;;;;;;;;;;;;;;17.12;68.20;98283.59;2086984;28;20011;-63
2024/01/01 02:56:48;;;;;;;;;;;;;;;17.11;68.37;98281.94;2092165;28;19929;-63
2024/01/01 02:57:50;;;;;;;;;;;;;;;17.11;68.29;98284.63;2088661;28;20023;-63
2024/01/01 02:58:50;;;;;;;;;;;;;;;17.13;68.14;98295.13;2091225;28;19932;-64
2024/01/01 02:59:52;;;;;;;;;;;;;;;17.12;68.20;98288.94;2089832;28;19968;-63
2024/01/01 03:00:53;;;;;;;;;;;;;;;17.10;68.38;98296.34;2090921;28;20422;-61
2024/01/01 03:01:54;;;;;;;;;;;;;;;17.09;68.37;98294.72;2088960;28;19936;-63
2024/01/01 03:02:55;;;;;;;;;;;;;;;17.11;68.40;98298.03;2088525;28;19928;-62
2024/01/01 03:03:56;;;;;;;;;;;;;;;17.10;68.53;98299.03;2088244;28;19971;-61
2024/01/01 03:04:57;;;;;;;;;;;;;;;17.09;68.55;98297.38;2088893;28;19931;-62
2024/01/01 03:05:59;;;;;;;;;;;;;;;17.09;68.39;98296.56;2087896;28;20358;-63
2024/01/01 03:06:59;;;;;;;;;;;;;;;17.09;68.75;98289.34;2090219;28;20594;-62
2024/01/01 03:08:01;;;;;;;;;;;;;;;17.11;68.63;98295.34;2091586;28;20015;-64
2024/01/01 03:09:03;;;;;;;;;;;;;;;17.10;68.51;98296.34;2086889;28;19929;-63
2024/01/01 03:10:04;;;;;;;;;;;;;;;17.10;68.67;98295.53;2089145;28;19935;-64
2024/01/01 03:11:06;;;;;;;;;;;;;;;17.09;68.48;98296.56;2089095;28;19929;-62
2024/01/01 03:12:07;;;;;;;;;;;;;;;17.08;68.50;98298.44;2087691;28;19932;-63
2024/01/01 03:13:08;;;;;;;;;;;;;;;17.09;68.52;98284.00;2085996;28;20085;-63
2024/01/01 03:14:09;;;;;;;;;;;;;;;17.09;68.45;98284.00;2088647;28;19955;-63
2024/01/01 03:15:11;;;;;;;;;;;;;;;17.07;68.52;98286.03;2085546;28;19987;-64
2024/01/01 03:16:13;;;;;;;;;;;;;;;17.07;68.69;98285.22;2089015;28;19928;-63
2024/01/01 03:17:15;;;;;;;;;;;;;;;17.05;68.55;98281.91;2087067;28;19928;-64
2024/01/01 03:18:17;;;;;;;;;;;;;;;17.06;68.63;98288.94;2090652;28;19928;-62
2024/01/01 03:19:18;;;;;;;;;;;;;;;17.06;68.54;98284.41;2088017;28;19932;-62
2024/01/01 03:20:19;;;;;;;;;;;;;;;17.06;68.62;98279.03;2088745;28;19932;-63
2024/01/01 03:21:21;;;;;;;;;;;;;;;17.06;68.59;98287.06;2089348;28;20933;-63
2024/01/01 03:22:21;;;;;;;;;;;;;;;17.06;68.80;98284.41;2089666;28;19940;-64
2024/01/01 03:23:22;;;;;;;;;;;;;;;17.06;68.57;98287.06;2087768;28;20368;-64
2024/01/01 03:24:25;;;;;;;;;;;;;;;17.08;68.58;98284.22;2088522;28;19972;-63
2024/01/01 03:25:26;;;;;;;;;;;;;;;17.06;68.62;98279.03;2089380;28;20019;-64
2024/01/01 03:26:27;;;;;;;;;;;;;;;17.07;68.58;98288.72;2091046;28;19936;-64
2024/01/01 03:27:28;;;;;;;;;;;;;;;17.07;68.52;98283.34;2089945;28;19948;-62
2024/01/01 03:28:29;;;;;;;;;;;;;;;17.08;68.84;98292.25;2092240;28;19972;-63
2024/01/01 03:29:30;;;;;;;;;;;;;;;17.07;68.46;98291.41;2088393;28;20306;-64
2024/01/01 03:30:32;;;;;;;;;;;;;;;17.08;68.67;98298.44;2084209;28;20019;-64
2024/01/01 03:31:32;;;;;;;;;;;;;;;17.06;68.85;98292.44;2089957;28;20406;-63
2024/01/01 03:32:34;;;;;;;;;;;;;;;17.06;68.70;98295.13;2088638;28;20021;-63
2024/01/01 03:33:34;;;;;;;;;;;;;;;17.07;68.60;98296.75;2091911;28;19928;-63
2024/01/01 03:34:35;;;;;;;;;;;;;;;17.06;68.76;98303.16;2087037;28;19967;-64
2024/01/01 03:35:37;;;;;;;;;;;;;;;17.05;68.61;98301.50;2089750;28;20606;-62
2024/01/01 03:36:37;;;;;;;;;;;;;;;17.06;68.72;98305.00;2087743;28;19932;-63
2024/01/01 03:37:39;;;;;;;;;;;;;;;17.04;68.72;98296.34;2087520;28;20054;-63
2024/01/01 03:38:39;;;;;;;;;;;;;;;17.04;68.74;98302.53;2085798;28;19951;-64
2024/01/01 03:39:42;;;;;;;;;;;;;;;17.06;68.77;98299.66;2090366;28;20011;-64
2024/01/01 03:40:43;;;;;;;;;;;;;;;17.04;68.57;98299.84;2086855;28;19925;-62
2024/01/01 03:41:43;;;;;;;;;;;;;;;17.03;68.76;98292.84;2088660;28;20027;-64
2024/01/01 03:42:45;;;;;;;;;;;;;;;17.04;68.62;98297.16;2092107;28;19977;-61
2024/01/01 03:43:46;;;;;;;;;;;;;;;17.04;68.65;98297.16;2086702;28;19928;-63
2024/01/01 03:44:47;;;;;;;;;;;;;;;17.06;68.71;98295.13;2089052;28;19928;-64
2024/01/01 03:45:48;;;;;;;;;;;;;;;17.07;68.60;98296.75;2087862;28;19929;-64
2024/01/01 03:46:49;;;;;;;;;;;;;;;17.04;68.77;98288.31;2089167;28;20414;-63
2024/01/01 03:47:51;;;;;;;;;;;;;;;17.04;68.78;98289.13;2088190;28;19925;-62
2024/01/01 03:48:52;;;;;;;;;;;;;;;17.03;68.79;98290.16;2093752;28;20007;-64
2024/01/01 03:49:53;;;;;;;;;;;;;;;17.01;68.92;98284.19;2085590;28;19932;-61
2024/01/01 03:50:55;;;;;;;;;;;;;;;17.04;68.85;98288.31;2090523;28;19932;-62
2024/01/01 03:51:55;;;;;;;;;;;;;;;17.04;68.71;98297.16;2089855;28;20303;-62
2024/01/01 03:52:56;;;;;;;;;;;;;;;17.05;68.58;98292.63;2089444;28;19931;-62
2024/01/01 03:53:58;;;;;;;;;;;;;;;17.04;68.74;98290.97;2090293;28;19968;-62
2024/01/01 03:55:00;;;;;;;;;;;;;;;17.08;68.69;98286.88;2080196;28;19924;-62
2024/01/01 03:56:01;;;;;;;;;;;;;;;17.05;68.81;98287.25;2081123;28;19940;-62
2024/01/01 03:57:02;;;;;;;;;;;;;;;17.05;68.69;98282.75;2083530;28;20018;-61
2024/01/01 03:58:04;;;;;;;;;;;;;;;17.04;68.87;98281.09;2077631;28;19951;-63
2024/01/01 03:59:04;;;;;;;;;;;;;;;17.07;68.95;98283.34;2081843;28;19932;-63
2024/01/01 04:00:08;;;;;;;;;;;;;;;17.06;68.72;98283.56;2079133;28;20410;-62
2024/01/01 04:01:11;;;;;;;;;;;;;;;17.07;68.85;98291.41;2086793;28;19925;-63
2024/01/01 04:02:12;;;;;;;;;;;;;;;17.08;68.63;98284.22;2090467;28;20016;-62
2024/01/01 04:03:13;;;;;;;;;;;;;;;17.09;68.94;98281.31;2092149;28;19932;-63
2024/01/01 04:04:15;;;;;;;;;;;;;;;17.09;68.61;98288.53;2088836;28;20713;-63
2024/01/01 04:05:15;;;;;;;;;;;;;;;17.08;68.91;98290.38;2088577;28;20280;-63
2024/01/01 04:06:17;;;;;;;;;;;;;;;17.08;69.02;98293.06;2090468;28;19935;-63
2024/01/01 04:07:17;;;;;;;;;;;;;;;17.07;69.00;98291.41;2089190;28;19933;-62
2024/01/01 04:08:19;;;;;;;;;;;;;;;17.08;69.00;98286.88;2089187;28;19971;-62
2024/01/01 04:09:20;;;;;;;;;;;;;;;17.07;68.88;98286.03;2086832;28;19936;-61
2024/01/01 04:10:23;;;;;;;;;;;;;;;17.07;68.89;98288.72;2087088;28;19966;-63
2024/01/01 04:11:23;;;;;;;;;;;;;;;17.07;68.76;98285.22;2087486;28;19932;-62
2024/01/01 04:12:24;;;;;;;;;;;;;;;17.08;68.98;98286.88;2089487;28;20007;-65
2024/01/01 04:13:25;;;;;;;;;;;;;;;17.05;69.06;98288.13;2090088;28;19932;-61
2024/01/01 04:14:26;;;;;;;;;;;;;;;17.06;68.83;98286.25;2085675;28;19935;-62
2024/01/01 04:15:28;;;;;;;;;;;;;;;17.08;68.95;98287.72;2089949;28;20015;-62
2024/01/01 04:16:28;;;;;;;;;;;;;;;17.08;69.00;98287.72;2093242;28;20414;-62
2024/01/01 04:17:31;;;;;;;;;;;;;;;17.09;68.96;98297.38;2089054;28;19932;-64
2024/01/01 04:18:31;;;;;;;;;;;;;;;17.10;68.64;98299.03;2091264;28;20554;-64
2024/01/01 04:19:33;;;;;;;;;;;;;;;17.12;68.69;98293.47;2092244;28;19985;-62
2024/01/01 04:20:33;;;;;;;;;;;;;;;17.11;68.82;98294.53;2089138;28;19962;-64
2024/01/01 04:21:38;;;;;;;;;;;;;;;17.10;68.91;98295.53;2090789;28;19983;-64
2024/01/01 04:22:40;;;;;;;;;;;;;;;17.10;68.84;98300.88;2089890;28;19925;-63
2024/01/01 04:23:42;;;;;;;;;;;;;;;17.09;68.93;98304.59;2089060;28;20502;-64
2024/01/01 04:24:42;;;;;;;;;;;;;;;17.10;68.85;98317.78;2088615;28;19932;-63
2024/01/01 04:25:46;;;;;;;;;;;;;;;17.09;68.90;98310.78;2091726;28;19960;-63
2024/01/01 04:26:46;;;;;;;;;;;;;;;17.11;68.93;98313.28;2090568;28;19932;-64
2024/01/01 04:27:48;;;;;;;;;;;;;;;17.09;69.02;98310.78;2090677;28;19956;-64
2024/01/01 04:28:48;;;;;;;;;;;;;;;17.10;68.81;98311.59;2092936;28;19928;-61
2024/01/01 04:29:50;;;;;;;;;;;;;;;17.09;68.66;98307.28;2090865;28;20011;-64
2024/01/01 04:30:51;;;;;;;;;;;;;;;17.09;68.99;98316.16;2089640;28;19925;-62
2024/01/01 04:31:52;;;;;;;;;;;;;;;17.09;68.76;98307.28;2090807;28;20011;-63
2024/01/01 04:32:53;;;;;;;;;;;;;;;17.09;68.92;98315.31;2091108;28;19926;-64
2024/01/01 04:33:54;;;;;;;;;;;;;;;17.09;68.84;98318.81;2092668;28;19932;-64
2024/01/01 04:34:56;;;;;;;;;;;;;;;17.08;68.75;98306.47;2089173;28;19978;-63
2024/01/01 04:35:57;;;;;;;;;;;;;;;17.10;68.86;98316.97;2088668;28;20606;-63
2024/01/01 04:36:58;;;;;;;;;;;;;;;17.09;68.91;98308.09;2092978;28;19970;-62
2024/01/01 04:37:59;;;;;;;;;;;;;;;17.11;68.85;98324.81;2090452;28;20506;-63
2024/01/01 04:39:03;;;;;;;;;;;;;;;17.13;68.92;98311.19;2088801;28;19978;-62
2024/01/01 04:40:05;;;;;;;;;;;;;;;17.13;68.99;98313.88;2090531;28;19924;-64
2024/01/01 04:41:09;;;;;;;;;;;;;;;17.16;68.75;98319.69;2087626;28;19956;-63
2024/01/01 04:42:09;;;;;;;;;;;;;;;17.18;68.74;98314.94;2092765;28;19924;-61
2024/01/01 04:43:11;;;;;;;;;;;;;;;17.18;68.84;98311.44;2091524;28;19963;-63
2024/01/01 04:44:11;;;;;;;;;;;;;;;17.17;68.91;98312.47;2088165;28;19929;-63
2024/01/01 04:45:13;;;;;;;;;;;;;;;17.16;69.05;98314.31;2087711;28;19976;-63
2024/01/01 04:46:14;;;;;;;;;;;;;;;17.16;69.09;98317.00;2091345;28;19929;-63
2024/01/01 04:47:15;;;;;;;;;;;;;;;17.18;69.13;98319.47;2091869;28;19991;-64
2024/01/01 04:48:17;;;;;;;;;;;;;;;17.16;69.01;98314.31;2086522;28;19970;-63
2024/01/01 04:49:18;;;;;;;;;;;;;;;17.18;69.11;98316.78;2090002;28;20045;-64
2024/01/01 04:50:19;;;;;;;;;;;;;;;17.20;69.05;98318.25;2089427;28;19940;-64
2024/01/01 04:51:20;;;;;;;;;;;;;;;17.20;69.21;98314.75;2089698;28;20027;-64
2024/01/01 04:52:21;;;;;;;;;;;;;;;17.19;69.24;98316.59;2088638;28;19939;-63
2024/01/01 04:53:22;;;;;;;;;;;;;;;17.19;69.16;98311.25;2089693;28;19971;-63
2024/01/01 04:54:22;;;;;;;;;;;;;;;17.19;69.28;98316.59;2090134;28;20410;-63
2024/01/01 04:55:24;;;;;;;;;;;;;;;17.19;69.17;98321.13;2090958;28;20032;-63
2024/01/01 04:56:26;;;;;;;;;;;;;;;17.19;69.27;98310.41;2089123;28;19924;-64
2024/01/01 04:57:28;;;;;;;;;;;;;;;17.21;69.34;98316.38;2088453;28;20342;-63
2024/01/01 04:58:28;;;;;;;;;;;;;;;17.21;69.32;98313.69;2088937;28;19940;-64
2024/01/01 04:59:29;;;;;;;;;;;;;;;17.20;69.25;98314.75;2089314;28;19971;-63
2024/01/01 05:00:30;;;;;;;;;;;;;;;17.23;69.39;98316.19;2089331;28;19928;-63
2024/01/01 05:01:31;;;;;;;;;;;;;;;17.21;69.12;98311.03;2092000;28;20550;-62
2024/01/01 05:02:32;;;;;;;;;;;;;;;17.24;69.33;98317.84;2087205;28;19928;-63
2024/01/01 05:03:33;;;;;;;;;;;;;;;17.25;69.29;98319.50;2089523;28;19929;-64
2024/01/01 05:04:35;;;;;;;;;;;;;;;17.24;69.22;98323.19;2089138;28;20012;-62
2024/01/01 05:05:35;;;;;;;;;;;;;;;17.26;69.17;98323.81;2089488;28;19933;-64
2024/01/01 05:06:37;;;;;;;;;;;;;;;17.24;69.12;98323.19;2089332;28;20039;-64
2024/01/01 05:07:37;;;;;;;;;;;;;;;17.24;69.18;98320.50;2090497;28;19932;-63
2024/01/01 05:08:38;;;;;;;;;;;;;;;17.26;69.26;98321.16;2089873;28;19960;-64
2024/01/01 05:09:42;;;;;;;;;;;;;;;17.24;69.31;98317.84;2087429;28;20015;-64
2024/01/01 05:10:43;;;;;;;;;;;;;;;17.23;69.22;98317.00;2090464;28;19925;-63
2024/01/01 05:11:46;;;;;;;;;;;;;;;17.24;69.37;98317.84;2090078;28;20032;-61
2024/01/01 05:12:46;;;;;;;;;;;;;;;17.25;69.39;98324.88;2090103;28;20579;-64
2024/01/01 05:13:48;;;;;;;;;;;;;;;17.24;69.27;98323.19;2089237;28;19924;-63
2024/01/01 05:14:49;;;;;;;;;;;;;;;17.25;69.24;98322.19;2088260;28;19933;-63
2024/01/01 05:15:50;;;;;;;;;;;;;;;17.23;69.20;98324.22;2086648;28;19968;-64
2024/01/01 05:16:51;;;;;;;;;;;;;;;17.24;69.15;98320.50;2088523;28;19925;-61
2024/01/01 05:17:52;;;;;;;;;;;;;;;17.26;69.33;98321.16;2090962;28;19968;-63
2024/01/01 05:18:53;;;;;;;;;;;;;;;17.24;69.33;98328.56;2089898;28;20383;-62
2024/01/01 05:19:55;;;;;;;;;;;;;;;17.24;69.17;98328.56;2090077;28;20027;-64